Time;durP1;ratioP1;P1;durP2;ratioP2;P2;SDS_P1;SDS_P2;PMS_P1;PMS_P2;Temp;Humidity;BMP_temperature;BMP_pressure;BME280_temperature;BME280_humidity;BME280_pressure;Samples;Min_cycle;Max_cycle;Signal;HPM_P1;HPM_P2
2023/10/04 00:00:21;;;;;;;4.60;2.00;;;19.50;56.50;;;;;;4987780;28;22056;-51
2023/10/04 00:02:53;;;;;;;3.30;2.20;;;19.50;56.70;;;;;;4983059;28;20445;-45
2023/10/04 00:05:21;;;;;;;3.03;2.47;;;19.50;56.80;;;;;;4987470;28;20540;-46
2023/10/04 00:07:49;;;;;;;3.40;2.30;;;19.50;56.90;;;;;;4986047;28;20442;-49
2023/10/04 00:10:19;;;;;;;7.03;2.40;;;19.50;57.20;;;;;;4978640;28;20883;-45
2023/10/04 00:12:46;;;;;;;2.47;2.00;;;19.60;56.60;;;;;;4985331;28;20446;-49
2023/10/04 00:15:12;;;;;;;3.00;2.50;;;19.50;56.50;;;;;;4988659;28;20465;-45
2023/10/04 00:17:42;;;;;;;4.57;2.10;;;19.50;56.50;;;;;;5004559;28;20437;-46
2023/10/04 00:20:13;;;;;;;3.30;2.03;;;19.40;56.60;;;;;;4993121;28;20441;-47
2023/10/04 00:22:40;;;;;;;6.53;2.50;;;19.40;56.50;;;;;;4998426;28;21014;-45
2023/10/04 00:25:11;;;;;;;5.23;2.37;;;19.40;56.50;;;;;;4993241;28;20493;-46
2023/10/04 00:27:40;;;;;;;2.30;1.90;;;19.30;56.50;;;;;;4984782;28;20450;-47
2023/10/04 00:30:11;;;;;;;3.20;2.17;;;19.20;56.50;;;;;;4991343;28;20483;-45
2023/10/04 00:32:36;;;;;;;3.40;2.17;;;19.20;56.60;;;;;;5005366;28;20934;-46
2023/10/04 00:35:03;;;;;;;2.70;1.87;;;19.10;56.70;;;;;;5008367;28;20425;-46
2023/10/04 00:37:31;;;;;;;2.40;1.97;;;19.00;56.80;;;;;;4994928;28;20199;-45
2023/10/04 00:39:58;;;;;;;3.53;2.23;;;19.00;57.10;;;;;;5003070;28;20467;-47
2023/10/04 00:42:24;;;;;;;2.60;2.20;;;18.90;57.60;;;;;;5001599;28;20492;-47
2023/10/04 00:44:51;;;;;;;4.93;2.20;;;18.90;57.70;;;;;;5005387;28;20989;-46
2023/10/04 00:47:16;;;;;;;3.50;2.50;;;18.90;57.90;;;;;;4984301;28;20213;-45
2023/10/04 00:49:45;;;;;;;9.20;2.60;;;18.90;57.70;;;;;;4989853;28;20438;-47
2023/10/04 00:52:11;;;;;;;4.17;2.53;;;19.00;57.50;;;;;;4991267;28;20863;-45
2023/10/04 00:54:40;;;;;;;3.10;2.40;;;19.00;57.80;;;;;;4989468;28;20464;-48
2023/10/04 00:57:10;;;;;;;4.83;1.80;;;19.00;56.90;;;;;;4991942;28;20474;-45
2023/10/04 00:59:36;;;;;;;2.93;2.33;;;19.00;56.90;;;;;;4999016;28;20441;-44
2023/10/04 01:02:01;;;;;;;3.37;2.23;;;19.00;57.10;;;;;;4994122;28;20441;-45
2023/10/04 01:04:27;;;;;;;2.87;2.23;;;18.90;57.60;;;;;;5000180;28;20234;-45
2023/10/04 01:06:54;;;;;;;3.47;2.20;;;18.90;57.60;;;;;;4991868;28;20230;-46
2023/10/04 01:09:23;;;;;;;5.13;2.20;;;19.00;57.50;;;;;;4989674;28;20265;-45
2023/10/04 01:11:49;;;;;;;2.60;1.80;;;19.00;57.40;;;;;;4986081;28;21048;-45
2023/10/04 01:14:23;;;;;;;3.27;2.93;;;19.10;57.30;;;;;;4988595;28;20520;-45
2023/10/04 01:16:51;;;;;;;3.10;2.00;;;19.10;56.90;;;;;;4985387;28;20214;-45
2023/10/04 01:19:17;;;;;;;5.90;2.37;;;19.00;57.20;;;;;;4996886;28;20517;-45
2023/10/04 01:21:42;;;;;;;2.90;2.50;;;18.80;57.20;;;;;;4992766;28;20964;-46
2023/10/04 01:24:11;;;;;;;2.90;2.23;;;18.60;58.20;;;;;;5000180;28;20593;-46
2023/10/04 01:26:38;;;;;;;2.67;2.23;;;18.60;58.20;;;;;;4985386;28;20205;-45
2023/10/04 01:29:11;;;;;;;5.20;2.27;;;18.60;58.20;;;;;;4994889;28;20537;-45
2023/10/04 01:31:38;;;;;;;3.37;1.97;;;18.70;57.70;;;;;;4995259;28;20452;-48
2023/10/04 01:34:06;;;;;;;3.57;1.90;;;18.70;57.30;;;;;;4992804;28;20910;-48
2023/10/04 01:36:36;;;;;;;5.03;2.20;;;18.80;57.20;;;;;;4992709;28;20481;-44
2023/10/04 01:39:07;;;;;;;3.63;2.27;;;18.70;57.00;;;;;;4994691;28;20897;-49
2023/10/04 01:41:37;;;;;;;2.93;2.10;;;18.70;56.90;;;;;;4991450;28;20466;-45
2023/10/04 01:44:04;;;;;;;2.10;1.90;;;18.60;56.90;;;;;;4989299;28;20489;-46
2023/10/04 01:46:29;;;;;;;3.40;2.37;;;18.60;56.70;;;;;;4997851;28;20422;-45
2023/10/04 01:48:56;;;;;;;3.17;2.50;;;18.40;57.50;;;;;;4987785;28;20504;-49
2023/10/04 01:51:22;;;;;;;3.50;1.90;;;18.40;57.80;;;;;;4984803;28;20285;-45
2023/10/04 01:53:48;;;;;;;3.70;2.07;;;18.30;57.90;;;;;;4989620;28;20528;-48
2023/10/04 01:56:13;;;;;;;3.33;2.10;;;18.30;57.80;;;;;;4986327;28;20875;-45
2023/10/04 01:58:40;;;;;;;2.40;2.07;;;18.40;57.80;;;;;;4980986;28;20261;-51
2023/10/04 02:01:08;;;;;;;2.37;1.90;;;18.30;57.60;;;;;;4987422;28;21517;-45
2023/10/04 02:03:34;;;;;;;3.83;2.20;;;18.40;57.50;;;;;;4988616;28;20489;-46
2023/10/04 02:05:59;;;;;;;3.00;1.90;;;18.30;57.40;;;;;;4985307;28;20438;-46
2023/10/04 02:08:25;;;;;;;4.23;2.50;;;18.30;57.50;;;;;;4987842;28;20198;-45
2023/10/04 02:10:52;;;;;;;3.10;2.60;;;18.20;57.80;;;;;;4982001;28;20214;-45
2023/10/04 02:13:19;;;;;;;4.50;2.33;;;18.20;58.10;;;;;;4987808;28;20448;-46
2023/10/04 02:15:48;;;;;;;2.63;2.33;;;18.10;58.20;;;;;;4989321;28;20484;-45
2023/10/04 02:18:15;;;;;;;3.13;2.47;;;18.10;58.20;;;;;;4992847;28;20449;-45
2023/10/04 02:20:47;;;;;;;4.50;2.30;;;18.10;58.30;;;;;;4985683;28;20461;-48
2023/10/04 02:23:13;;;;;;;5.60;2.27;;;18.20;58.40;;;;;;4990902;28;20477;-47
2023/10/04 02:25:39;;;;;;;2.33;2.00;;;18.20;58.30;;;;;;4998062;28;20544;-46
2023/10/04 02:28:11;;;;;;;4.30;2.20;;;18.20;58.30;;;;;;4991273;28;20520;-46
2023/10/04 02:30:40;;;;;;;3.73;2.83;;;18.10;58.60;;;;;;4986754;28;20195;-45
2023/10/04 02:33:13;;;;;;;3.03;2.60;;;18.10;59.00;;;;;;4985427;28;20446;-45
2023/10/04 02:35:46;;;;;;;3.70;2.07;;;18.00;59.70;;;;;;4982635;28;20850;-47
2023/10/04 02:38:32;;;;;;;2.30;2.03;;;18.00;60.60;;;;;;4992573;28;20448;-45
2023/10/04 02:40:59;;;;;;;2.40;1.90;;;18.00;59.60;;;;;;4981760;28;20449;-45
2023/10/04 02:43:25;;;;;;;4.10;2.77;;;18.00;59.40;;;;;;4985134;28;20526;-46
2023/10/04 02:45:52;;;;;;;3.40;2.30;;;18.10;59.10;;;;;;4986762;28;21177;-45
2023/10/04 02:48:23;;;;;;;3.53;2.80;;;18.20;58.90;;;;;;4994635;28;20468;-48
2023/10/04 02:50:49;;;;;;;4.40;2.23;;;18.20;59.00;;;;;;5001992;28;20941;-47
2023/10/04 02:53:20;;;;;;;4.40;2.77;;;18.10;59.10;;;;;;4981355;28;20450;-44
2023/10/04 02:55:46;;;;;;;2.73;2.40;;;18.20;59.00;;;;;;4977468;28;20497;-45
2023/10/04 02:58:13;;;;;;;3.90;2.60;;;18.20;58.90;;;;;;4983338;28;20972;-46
2023/10/04 03:00:49;;;;;;;4.43;2.70;;;18.20;58.90;;;;;;4994517;28;20430;-46
2023/10/04 03:03:21;;;;;;;3.90;1.97;;;18.20;59.00;;;;;;4985085;28;20477;-45
2023/10/04 03:05:47;;;;;;;2.53;2.33;;;18.20;59.00;;;;;;4989302;28;20449;-45
2023/10/04 03:08:13;;;;;;;3.57;2.50;;;18.20;59.20;;;;;;4990009;28;20854;-45
2023/10/04 03:10:40;;;;;;;2.27;1.90;;;18.20;59.00;;;;;;4982973;28;20191;-46
2023/10/04 03:13:11;;;;;;;5.33;2.50;;;18.20;59.00;;;;;;4989911;28;20195;-46
2023/10/04 03:15:38;;;;;;;3.60;2.20;;;18.20;58.50;;;;;;4988235;28;20446;-47
2023/10/04 03:18:13;;;;;;;4.30;2.60;;;18.20;58.60;;;;;;4988234;28;20469;-45
2023/10/04 03:20:45;;;;;;;2.37;2.13;;;18.10;58.40;;;;;;4987514;28;20449;-45
2023/10/04 03:23:11;;;;;;;6.57;2.30;;;18.10;58.50;;;;;;4982649;28;20858;-45
2023/10/04 03:25:36;;;;;;;3.30;2.27;;;18.10;58.50;;;;;;4984660;28;20446;-46
2023/10/04 03:28:02;;;;;;;4.63;2.67;;;18.10;58.60;;;;;;4990090;28;20465;-45
2023/10/04 03:30:28;;;;;;;3.50;2.03;;;18.10;58.40;;;;;;4981353;28;20780;-46
2023/10/04 03:32:56;;;;;;;3.23;2.00;;;18.10;58.50;;;;;;4984596;28;20503;-45
2023/10/04 03:35:22;;;;;;;2.37;2.17;;;18.10;59.00;;;;;;4991097;28;20277;-46
2023/10/04 03:38:01;;;;;;;4.17;2.10;;;18.10;58.70;;;;;;4994127;28;20602;-44
2023/10/04 03:40:38;;;;;;;3.87;2.03;;;18.10;58.70;;;;;;4992221;28;20456;-47
2023/10/04 03:43:05;;;;;;;4.80;2.37;;;17.90;58.90;;;;;;4991111;28;20456;-45
2023/10/04 03:45:41;;;;;;;6.67;3.97;;;17.80;59.20;;;;;;4994829;28;20953;-44
2023/10/04 03:48:13;;;;;;;6.60;2.10;;;17.60;59.70;;;;;;4983874;28;20442;-46
2023/10/04 03:50:40;;;;;;;3.40;2.13;;;17.60;59.70;;;;;;4986787;28;20452;-47
2023/10/04 03:53:07;;;;;;;3.70;2.30;;;17.50;59.40;;;;;;4984521;28;20519;-46
2023/10/04 03:55:33;;;;;;;2.57;2.30;;;17.40;59.80;;;;;;4991414;28;20484;-44
2023/10/04 03:57:59;;;;;;;8.60;2.60;;;17.40;60.50;;;;;;4998748;28;20450;-47
2023/10/04 04:00:24;;;;;;;3.03;2.30;;;17.20;60.80;;;;;;4977614;28;20240;-45
2023/10/04 04:02:51;;;;;;;4.00;2.63;;;17.10;61.10;;;;;;4990556;28;20202;-45
2023/10/04 04:05:21;;;;;;;3.47;2.50;;;17.20;60.80;;;;;;4992543;28;20201;-47
2023/10/04 04:07:51;;;;;;;8.77;2.70;;;17.20;60.60;;;;;;4990005;28;20457;-44
2023/10/04 04:10:19;;;;;;;2.60;2.13;;;17.20;60.40;;;;;;4997177;28;20599;-47
2023/10/04 04:12:46;;;;;;;3.93;2.50;;;17.20;60.30;;;;;;4987478;28;20571;-47
2023/10/04 04:15:13;;;;;;;3.57;3.17;;;17.00;61.50;;;;;;4997705;28;20820;-45
2023/10/04 04:17:42;;;;;;;3.07;2.60;;;16.90;62.30;;;;;;4991471;28;20450;-44
2023/10/04 04:20:19;;;;;;;2.87;2.57;;;16.80;62.50;;;;;;5001365;28;21031;-45
2023/10/04 04:22:55;;;;;;;3.73;2.43;;;16.80;62.70;;;;;;4988717;28;20451;-44
2023/10/04 04:25:26;;;;;;;4.30;2.67;;;16.90;62.60;;;;;;4990067;28;20476;-44
2023/10/04 04:27:52;;;;;;;4.83;2.30;;;16.90;62.40;;;;;;4987882;28;20460;-44
2023/10/04 04:30:23;;;;;;;4.47;2.87;;;16.90;62.50;;;;;;4997016;28;20446;-44
2023/10/04 04:32:52;;;;;;;3.03;2.37;;;16.90;62.20;;;;;;4990517;28;20465;-45
2023/10/04 04:35:30;;;;;;;3.47;2.00;;;16.90;62.30;;;;;;4983632;28;20468;-47
2023/10/04 04:37:57;;;;;;;4.30;2.73;;;16.90;62.00;;;;;;4990363;28;20945;-45
2023/10/04 04:40:27;;;;;;;3.97;3.20;;;16.90;62.90;;;;;;4985248;28;20532;-46
2023/10/04 04:43:01;;;;;;;3.27;2.63;;;16.90;63.10;;;;;;4983439;28;20526;-45
2023/10/04 04:45:27;;;;;;;3.37;2.40;;;17.10;62.80;;;;;;4992966;28;20796;-45
2023/10/04 04:47:52;;;;;;;3.20;2.83;;;17.20;62.30;;;;;;4981704;28;20446;-45
2023/10/04 04:50:19;;;;;;;3.90;2.50;;;17.30;61.60;;;;;;4990166;28;20202;-45
2023/10/04 04:52:45;;;;;;;3.67;2.83;;;17.30;61.10;;;;;;4988842;28;20187;-46
2023/10/04 04:55:11;;;;;;;5.80;2.50;;;17.40;61.20;;;;;;4943776;28;1115784;-46
2023/10/04 04:57:38;;;;;;;3.20;2.70;;;17.40;60.50;;;;;;4994499;28;20461;-45
2023/10/04 05:00:30;;;;;;;3.10;2.40;;;17.30;60.70;;;;;;4981468;28;20194;-46
2023/10/04 05:02:52;;;;;;;5.17;2.43;;;17.20;61.60;;;;;;4990130;28;20461;-45
2023/10/04 05:05:20;;;;;;;3.53;2.40;;;17.30;61.70;;;;;;4982983;28;20461;-47
2023/10/04 05:07:47;;;;;;;3.20;2.90;;;17.40;61.20;;;;;;4982958;28;20195;-45
2023/10/04 05:10:14;;;;;;;3.40;2.87;;;17.50;60.80;;;;;;4983351;28;20449;-45
2023/10/04 05:12:41;;;;;;;2.70;2.40;;;17.60;60.40;;;;;;4989674;28;20446;-46
2023/10/04 05:15:22;;;;;;;2.57;2.17;;;17.60;60.00;;;;;;4987277;28;20545;-45
2023/10/04 05:17:50;;;;;;;4.47;2.80;;;17.60;59.70;;;;;;4996187;28;20476;-45
2023/10/04 05:20:21;;;;;;;3.03;2.73;;;17.60;59.20;;;;;;4983818;28;20449;-51
2023/10/04 05:22:49;;;;;;;3.27;2.97;;;17.70;59.60;;;;;;4990471;28;20448;-45
2023/10/04 05:25:16;;;;;;;4.43;2.70;;;17.60;59.10;;;;;;4994892;28;20501;-45
2023/10/04 05:27:42;;;;;;;3.27;2.77;;;17.60;58.90;;;;;;4997623;28;20442;-45
2023/10/04 05:30:13;;;;;;;5.23;3.57;;;17.60;58.80;;;;;;5001766;28;21119;-49
2023/10/04 05:32:40;;;;;;;2.80;2.57;;;17.60;59.00;;;;;;4989834;28;20810;-45
2023/10/04 05:35:07;;;;;;;3.27;2.73;;;17.50;58.80;;;;;;4995760;28;20453;-44
2023/10/04 05:37:32;;;;;;;2.43;2.23;;;17.50;58.80;;;;;;5003785;28;20441;-45
2023/10/04 05:39:58;;;;;;;2.90;2.60;;;17.50;58.90;;;;;;4999793;28;20923;-44
2023/10/04 05:42:24;;;;;;;4.30;3.30;;;17.40;58.80;;;;;;5003784;28;20190;-44
2023/10/04 05:44:52;;;;;;;3.80;2.60;;;17.30;59.40;;;;;;5005946;28;20682;-45
2023/10/04 05:47:17;;;;;;;4.63;3.13;;;17.40;59.40;;;;;;4999544;28;20432;-45
2023/10/04 05:49:44;;;;;;;4.10;2.50;;;17.40;59.20;;;;;;5000970;28;20435;-44
2023/10/04 05:52:09;;;;;;;7.13;2.70;;;17.40;59.10;;;;;;4999943;28;20560;-45
2023/10/04 05:54:35;;;;;;;2.93;2.53;;;17.40;59.00;;;;;;5006660;28;20529;-44
2023/10/04 05:57:02;;;;;;;2.60;1.90;;;17.40;58.90;;;;;;4995535;28;20656;-45
2023/10/04 05:59:27;;;;;;;6.00;2.63;;;17.30;59.20;;;;;;5004324;28;20195;-45
2023/10/04 06:01:53;;;;;;;3.57;3.10;;;17.20;59.70;;;;;;5006556;28;20484;-45
2023/10/04 06:04:18;;;;;;;3.53;3.03;;;17.30;59.40;;;;;;4999563;28;20224;-48
2023/10/04 06:06:45;;;;;;;3.30;2.53;;;17.30;59.10;;;;;;5006192;28;20637;-44
2023/10/04 06:09:10;;;;;;;4.03;3.00;;;17.30;59.20;;;;;;5000106;28;20226;-45
2023/10/04 06:11:36;;;;;;;4.03;2.43;;;17.30;59.20;;;;;;5006114;28;20469;-46
2023/10/04 06:14:01;;;;;;;3.07;2.83;;;17.30;60.00;;;;;;4999863;28;20561;-50
2023/10/04 06:16:28;;;;;;;2.50;2.30;;;17.30;59.30;;;;;;5003489;28;21023;-49
2023/10/04 06:18:53;;;;;;;2.67;2.47;;;17.40;59.10;;;;;;5006274;28;20206;-46
2023/10/04 06:21:19;;;;;;;2.93;2.50;;;17.40;58.90;;;;;;4993109;28;20437;-48
2023/10/04 06:23:44;;;;;;;2.67;2.30;;;17.50;59.00;;;;;;4997027;28;20233;-48
2023/10/04 06:26:12;;;;;;;3.43;2.20;;;17.50;59.00;;;;;;4993837;28;20539;-47
2023/10/04 06:28:38;;;;;;;4.10;2.10;;;17.60;59.30;;;;;;5005460;28;20194;-47
2023/10/04 06:31:06;;;;;;;4.07;2.30;;;17.70;59.30;;;;;;5000511;28;20461;-49
2023/10/04 06:33:31;;;;;;;2.30;2.10;;;17.80;59.20;;;;;;5006806;28;20436;-50
2023/10/04 06:35:57;;;;;;;2.63;2.00;;;18.00;58.80;;;;;;4995628;28;20434;-48
2023/10/04 06:38:22;;;;;;;2.33;2.13;;;18.00;58.70;;;;;;4995872;28;20195;-51
2023/10/04 06:40:48;;;;;;;2.70;1.90;;;18.30;58.70;;;;;;4999099;28;20676;-47
2023/10/04 06:43:16;;;;;;;2.40;2.20;;;18.40;58.30;;;;;;5000205;28;20764;-51
2023/10/04 06:45:42;;;;;;;2.67;2.47;;;18.70;58.10;;;;;;5004241;28;20187;-46
2023/10/04 06:48:08;;;;;;;2.53;2.33;;;18.90;57.70;;;;;;4999604;28;20441;-50
2023/10/04 06:50:36;;;;;;;2.50;2.30;;;19.10;57.30;;;;;;4996918;28;20194;-51
2023/10/04 06:53:02;;;;;;;3.07;2.67;;;19.20;57.10;;;;;;5001449;28;20308;-52
2023/10/04 06:55:32;;;;;;;16.03;4.80;;;19.20;56.90;;;;;;5005438;28;20835;-46
2023/10/04 06:57:58;;;;;;;4.90;3.33;;;19.30;57.10;;;;;;5005108;28;20524;-48
2023/10/04 07:00:31;;;;;;;4.80;2.40;;;19.30;57.20;;;;;;4999357;28;20905;-48
2023/10/04 07:02:59;;;;;;;5.80;2.80;;;19.50;57.00;;;;;;4999995;28;20873;-50
2023/10/04 07:05:36;;;;;;;4.00;2.40;;;19.70;56.50;;;;;;5001176;28;20805;-48
2023/10/04 07:08:05;;;;;;;2.60;2.33;;;19.90;56.30;;;;;;5005213;28;20449;-48
2023/10/04 07:10:31;;;;;;;3.20;2.70;;;20.10;55.90;;;;;;4994690;28;20781;-49
2023/10/04 07:12:58;;;;;;;3.07;2.40;;;20.40;55.70;;;;;;4992613;28;20422;-45
2023/10/04 07:15:27;;;;;;;2.73;2.43;;;20.50;55.30;;;;;;4992701;28;20269;-51
2023/10/04 07:17:53;;;;;;;4.40;2.43;;;20.70;55.30;;;;;;4999212;28;20487;-52
2023/10/04 07:20:19;;;;;;;3.37;2.77;;;20.80;54.90;;;;;;4997843;28;20917;-50
2023/10/04 07:22:47;;;;;;;3.53;2.23;;;20.90;54.60;;;;;;4996760;28;20281;-46
2023/10/04 07:25:13;;;;;;;5.37;2.57;;;21.00;54.30;;;;;;4993572;28;20844;-51
2023/10/04 07:27:41;;;;;;;4.73;3.07;;;21.10;54.20;;;;;;5000846;28;20561;-50
2023/10/04 07:30:07;;;;;;;3.20;2.53;;;21.20;54.10;;;;;;5000318;28;20468;-48
2023/10/04 07:32:33;;;;;;;3.30;2.80;;;21.40;54.40;;;;;;4999594;28;20929;-50
2023/10/04 07:35:00;;;;;;;8.27;3.23;;;21.40;54.40;;;;;;4999786;28;20867;-52
2023/10/04 07:37:25;;;;;;;3.90;3.20;;;21.50;54.30;;;;;;4997897;28;20426;-51
2023/10/04 07:39:52;;;;;;;4.30;2.90;;;21.50;53.90;;;;;;5003099;28;20436;-50
2023/10/04 07:42:20;;;;;;;5.23;3.20;;;21.30;54.20;;;;;;4999624;28;20655;-51
2023/10/04 07:44:46;;;;;;;5.10;2.73;;;21.20;54.40;;;;;;4997110;28;21044;-51
2023/10/04 07:47:12;;;;;;;7.43;3.80;;;21.00;53.90;;;;;;4991447;28;20434;-52
2023/10/04 07:49:37;;;;;;;4.60;2.33;;;21.20;54.30;;;;;;4991998;28;20942;-49
2023/10/04 07:52:03;;;;;;;10.37;3.07;;;21.20;53.40;;;;;;4990822;28;20204;-49
2023/10/04 07:54:29;;;;;;;8.57;2.40;;;21.40;53.60;;;;;;5002656;28;20285;-52
2023/10/04 07:56:55;;;;;;;3.30;2.23;;;21.40;53.30;;;;;;5011619;28;20240;-51
2023/10/04 07:59:20;;;;;;;4.10;2.53;;;21.50;53.70;;;;;;5011758;28;20893;-53
2023/10/04 08:01:46;;;;;;;7.17;3.00;;;21.60;53.20;;;;;;5006402;28;20189;-53
2023/10/04 08:04:12;;;;;;;3.67;2.30;;;21.70;53.10;;;;;;5002335;28;20233;-50
2023/10/04 08:06:49;;;;;;;6.70;3.67;;;21.60;52.70;;;;;;4988171;28;20800;-53
2023/10/04 08:09:15;;;;;;;5.40;2.70;;;21.70;51.80;;;;;;4984324;28;20193;-46
2023/10/04 08:11:41;;;;;;;7.00;3.50;;;21.80;51.60;;;;;;4986965;28;20437;-46
2023/10/04 08:14:07;;;;;;;2.80;2.47;;;21.80;51.10;;;;;;4985293;28;20448;-46
2023/10/04 08:16:36;;;;;;;6.43;3.20;;;21.90;51.00;;;;;;4988343;28;20445;-47
2023/10/04 08:19:04;;;;;;;4.17;2.90;;;21.90;51.10;;;;;;4988899;28;20444;-46
2023/10/04 08:21:33;;;;;;;3.20;2.90;;;21.80;51.00;;;;;;4986753;28;20469;-48
2023/10/04 08:23:59;;;;;;;7.23;3.30;;;21.90;50.90;;;;;;4987404;28;20489;-46
2023/10/04 08:26:25;;;;;;;4.60;3.27;;;21.90;50.90;;;;;;4996478;28;20448;-47
2023/10/04 08:28:51;;;;;;;5.23;3.10;;;21.90;50.70;;;;;;4975242;28;20454;-54
2023/10/04 08:31:18;;;;;;;6.13;3.00;;;22.00;50.50;;;;;;4975125;28;20202;-47
2023/10/04 08:33:44;;;;;;;3.87;2.50;;;21.80;50.20;;;;;;4975402;28;20195;-49
2023/10/04 08:36:16;;;;;;;4.40;3.30;;;21.80;50.80;;;;;;4972137;28;20443;-49
2023/10/04 08:38:42;;;;;;;6.70;2.50;;;21.90;50.90;;;;;;4971471;28;20598;-48
2023/10/04 08:41:08;;;;;;;5.20;3.47;;;22.00;51.30;;;;;;4984755;28;20485;-50
2023/10/04 08:43:34;;;;;;;9.83;3.87;;;21.90;50.40;;;;;;4978789;28;20494;-47
2023/10/04 08:46:02;;;;;;;6.73;2.97;;;22.00;50.50;;;;;;4971870;28;20547;-48
2023/10/04 08:48:29;;;;;;;5.60;2.63;;;22.20;50.00;;;;;;4980394;28;20479;-52
2023/10/04 08:51:28;;;;;;;6.80;3.50;;;22.30;50.20;;;;;;4983471;28;20454;-48
2023/10/04 08:54:13;;;;;;;6.90;2.97;;;22.30;49.80;;;;;;4973339;28;20461;-49
2023/10/04 08:57:13;;;;;;;6.87;2.90;;;22.00;51.10;;;;;;4987572;28;20471;-47
2023/10/04 08:59:40;;;;;;;11.50;3.23;;;22.10;51.20;;;;;;4972383;28;20469;-48
2023/10/04 09:02:13;;;;;;;5.80;2.83;;;22.30;51.30;;;;;;4978753;28;20481;-47
2023/10/04 09:04:39;;;;;;;5.20;2.37;;;22.60;50.10;;;;;;4978214;28;20580;-45
2023/10/04 09:07:11;;;;;;;4.13;2.23;;;22.80;49.00;;;;;;4976451;28;20482;-45
2023/10/04 09:09:40;;;;;;;6.90;2.50;;;23.00;48.50;;;;;;4980038;28;20944;-46
2023/10/04 09:12:09;;;;;;;3.43;1.40;;;22.90;47.90;;;;;;4977929;28;20441;-48
2023/10/04 09:14:40;;;;;;;4.60;1.77;;;22.90;47.30;;;;;;4976142;28;20446;-48
2023/10/04 09:17:07;;;;;;;4.50;1.83;;;22.90;46.70;;;;;;4993927;28;20479;-48
2023/10/04 09:19:33;;;;;;;4.83;2.60;;;22.90;45.70;;;;;;4992651;28;20454;-49
2023/10/04 09:22:06;;;;;;;4.43;1.57;;;23.00;45.60;;;;;;4978876;28;20446;-46
2023/10/04 09:24:56;;;;;;;3.70;1.60;;;23.00;45.70;;;;;;4978355;28;20572;-48
2023/10/04 09:27:23;;;;;;;4.17;1.50;;;23.10;45.50;;;;;;4976141;28;21077;-50
2023/10/04 09:29:49;;;;;;;3.00;1.40;;;23.20;45.60;;;;;;4973518;28;20462;-50
2023/10/04 09:32:18;;;;;;;3.23;1.37;;;23.30;45.50;;;;;;4977764;28;20453;-48
2023/10/04 09:34:57;;;;;;;2.03;1.37;;;23.50;45.30;;;;;;4979779;28;20461;-53
2023/10/04 09:37:23;;;;;;;4.63;1.67;;;23.70;44.50;;;;;;4975699;28;21861;-50
2023/10/04 09:39:49;;;;;;;3.30;1.80;;;23.80;44.30;;;;;;4982147;28;20462;-48
2023/10/04 09:42:15;;;;;;;4.30;1.50;;;24.00;43.20;;;;;;4979291;28;22415;-48
2023/10/04 09:44:40;;;;;;;3.80;1.57;;;24.20;43.80;;;;;;4983080;28;20233;-50
2023/10/04 09:47:09;;;;;;;6.00;1.87;;;24.30;43.30;;;;;;4974104;28;20261;-46
2023/10/04 09:49:36;;;;;;;1.37;1.13;;;24.50;43.00;;;;;;4974886;28;20238;-46
2023/10/04 09:52:14;;;;;;;5.10;1.90;;;24.60;41.80;;;;;;4976599;28;20484;-49
2023/10/04 09:54:40;;;;;;;4.17;1.40;;;24.60;42.20;;;;;;4973031;28;20453;-45
2023/10/04 09:57:08;;;;;;;1.73;1.43;;;24.50;42.10;;;;;;4977957;28;21014;-47
2023/10/04 09:59:38;;;;;;;2.70;1.80;;;24.50;42.00;;;;;;4974741;28;20456;-46
2023/10/04 10:02:07;;;;;;;4.30;1.80;;;24.30;41.70;;;;;;4978656;28;20945;-48
2023/10/04 10:04:46;;;;;;;2.83;1.57;;;24.20;41.50;;;;;;4973881;28;20504;-48
2023/10/04 10:07:20;;;;;;;2.37;1.43;;;24.30;41.80;;;;;;4975539;28;21049;-49
2023/10/04 10:10:04;;;;;;;4.10;2.83;;;24.30;42.90;;;;;;4973465;28;20472;-46
2023/10/04 10:12:31;;;;;;;5.10;2.07;;;24.30;42.10;;;;;;4978039;28;20900;-47
2023/10/04 10:15:04;;;;;;;3.80;1.70;;;24.20;42.40;;;;;;4977818;28;20450;-52
2023/10/04 10:17:31;;;;;;;2.90;1.70;;;24.30;42.50;;;;;;4973829;28;20665;-51
2023/10/04 10:19:57;;;;;;;3.07;1.60;;;24.30;42.40;;;;;;4976238;28;21084;-46
2023/10/04 10:22:23;;;;;;;5.83;1.90;;;24.30;42.50;;;;;;4974827;28;20548;-52
2023/10/04 10:24:59;;;;;;;2.30;1.80;;;24.40;42.50;;;;;;4977838;28;21008;-48
2023/10/04 10:27:28;;;;;;;2.93;1.40;;;24.50;42.20;;;;;;4975682;28;20202;-51
2023/10/04 10:29:57;;;;;;;4.03;1.83;;;24.40;41.60;;;;;;4975976;28;20479;-51
2023/10/04 10:32:24;;;;;;;3.50;1.60;;;24.40;41.70;;;;;;4975019;28;20521;-49
2023/10/04 10:34:51;;;;;;;2.63;1.50;;;24.30;41.50;;;;;;4977221;28;21058;-46
2023/10/04 10:37:23;;;;;;;4.07;1.93;;;24.20;41.70;;;;;;4973103;28;21886;-46
2023/10/04 10:39:53;;;;;;;4.63;1.80;;;24.20;42.00;;;;;;4980131;28;20458;-46
2023/10/04 10:42:19;;;;;;;4.00;1.50;;;24.10;42.20;;;;;;4978651;28;20792;-48
2023/10/04 10:44:46;;;;;;;3.00;1.40;;;24.00;42.50;;;;;;4973193;28;20490;-51
2023/10/04 10:47:21;;;;;;;3.80;1.43;;;23.90;42.20;;;;;;4973995;28;20466;-46
2023/10/04 10:49:52;;;;;;;5.10;1.90;;;24.10;43.00;;;;;;4972602;28;20460;-46
2023/10/04 10:52:23;;;;;;;2.77;1.50;;;24.20;44.00;;;;;;4975839;28;20985;-50
2023/10/04 10:54:50;;;;;;;4.27;1.63;;;24.40;43.70;;;;;;4975178;28;20501;-49
2023/10/04 10:57:18;;;;;;;3.10;1.73;;;24.60;43.00;;;;;;4980197;28;20877;-49
2023/10/04 10:59:46;;;;;;;5.33;1.73;;;24.70;42.20;;;;;;4973838;28;20442;-46
2023/10/04 11:02:12;;;;;;;3.00;1.20;;;24.80;41.80;;;;;;4974568;28;21987;-48
2023/10/04 11:04:38;;;;;;;3.03;1.50;;;24.90;41.50;;;;;;4974002;28;20490;-51
2023/10/04 11:07:06;;;;;;;2.43;1.60;;;25.00;41.70;;;;;;4976199;28;20186;-50
2023/10/04 11:09:37;;;;;;;3.63;2.03;;;25.10;41.90;;;;;;4972273;28;20470;-48
2023/10/04 11:12:07;;;;;;;2.73;1.50;;;25.00;39.60;;;;;;4971102;28;20481;-50
2023/10/04 11:14:34;;;;;;;2.87;1.60;;;24.70;40.80;;;;;;4976764;28;20457;-46
2023/10/04 11:17:01;;;;;;;2.20;1.37;;;24.70;40.60;;;;;;4971807;28;20441;-48
2023/10/04 11:19:26;;;;;;;2.77;1.67;;;24.80;40.50;;;;;;4973947;28;20472;-46
2023/10/04 11:21:52;;;;;;;6.50;1.50;;;24.90;40.60;;;;;;4971319;28;20946;-50
2023/10/04 11:24:20;;;;;;;2.20;1.53;;;25.00;39.60;;;;;;4973638;28;20230;-46
2023/10/04 11:26:46;;;;;;;3.10;1.67;;;25.00;41.50;;;;;;4972120;28;20449;-50
2023/10/04 11:29:13;;;;;;;2.13;1.50;;;25.20;39.70;;;;;;4977276;28;20434;-50
2023/10/04 11:31:39;;;;;;;3.90;1.73;;;25.00;39.70;;;;;;4973338;28;20457;-46
2023/10/04 11:34:05;;;;;;;5.10;2.07;;;25.20;40.00;;;;;;4974285;28;20442;-49
2023/10/04 11:36:35;;;;;;;4.00;1.63;;;25.10;39.50;;;;;;4975607;28;20195;-50
2023/10/04 11:39:04;;;;;;;2.97;1.57;;;25.10;39.20;;;;;;4974307;28;20198;-51
2023/10/04 11:41:29;;;;;;;2.90;1.30;;;25.40;38.90;;;;;;4975041;28;20996;-49
2023/10/04 11:44:02;;;;;;;2.50;1.60;;;25.70;39.00;;;;;;4974097;28;20615;-47
2023/10/04 11:46:29;;;;;;;2.30;1.23;;;25.60;38.60;;;;;;4976569;28;20571;-47
2023/10/04 11:49:11;;;;;;;3.37;1.60;;;25.70;37.60;;;;;;4972963;28;21710;-48
2023/10/04 11:51:39;;;;;;;2.40;1.43;;;25.70;38.10;;;;;;4971231;28;20454;-49
2023/10/04 11:54:05;;;;;;;3.40;1.60;;;25.70;38.80;;;;;;4974341;28;20945;-50
2023/10/04 11:56:39;;;;;;;4.57;1.70;;;25.60;38.20;;;;;;4972277;28;20476;-47
2023/10/04 11:59:05;;;;;;;3.50;1.60;;;25.60;38.20;;;;;;4974820;28;21040;-50
2023/10/04 12:01:30;;;;;;;4.00;1.50;;;25.70;39.00;;;;;;4967714;28;20457;-50
2023/10/04 12:03:56;;;;;;;3.33;1.70;;;25.80;37.70;;;;;;4978253;28;20725;-50
2023/10/04 12:06:32;;;;;;;3.37;1.70;;;25.90;38.30;;;;;;4972144;28;20205;-46
2023/10/04 12:08:58;;;;;;;3.60;1.60;;;26.00;38.90;;;;;;4974202;28;20195;-48
2023/10/04 12:11:25;;;;;;;2.30;1.50;;;26.10;39.10;;;;;;4975183;28;20446;-49
2023/10/04 12:13:51;;;;;;;3.53;1.70;;;26.30;37.60;;;;;;4974479;28;20442;-48
2023/10/04 12:16:17;;;;;;;2.93;1.40;;;26.10;37.30;;;;;;4973701;28;20980;-48
2023/10/04 12:18:44;;;;;;;2.90;1.67;;;26.30;37.90;;;;;;4976992;28;20456;-48
2023/10/04 12:21:11;;;;;;;3.93;1.43;;;26.50;35.20;;;;;;4990403;28;20201;-46
2023/10/04 12:23:36;;;;;;;2.73;1.43;;;26.50;34.50;;;;;;4993975;28;20505;-50
2023/10/04 12:26:04;;;;;;;2.60;1.40;;;26.40;34.60;;;;;;4994567;28;20484;-48
2023/10/04 12:28:29;;;;;;;5.30;1.40;;;26.60;35.10;;;;;;4987832;28;20253;-47
2023/10/04 12:31:01;;;;;;;2.80;1.40;;;26.60;34.30;;;;;;4979693;28;20469;-49
2023/10/04 12:33:29;;;;;;;2.30;1.20;;;26.40;34.70;;;;;;4979056;28;20202;-50
2023/10/04 12:35:55;;;;;;;3.43;1.13;;;26.50;34.90;;;;;;4977674;28;20515;-49
2023/10/04 12:38:24;;;;;;;2.47;1.30;;;26.80;34.40;;;;;;4983381;28;20921;-50
2023/10/04 12:40:50;;;;;;;2.43;1.23;;;26.70;33.60;;;;;;4986720;28;20213;-46
2023/10/04 12:43:16;;;;;;;1.60;1.30;;;26.80;32.70;;;;;;4990784;28;20441;-49
2023/10/04 12:45:42;;;;;;;2.30;1.00;;;26.90;33.40;;;;;;4983827;28;20440;-52
2023/10/04 12:48:07;;;;;;;2.53;1.30;;;27.00;32.10;;;;;;5001365;28;20194;-51
2023/10/04 12:50:35;;;;;;;3.33;1.13;;;27.10;30.20;;;;;;4995992;28;20446;-47